This is the latest recevied weather packets stored in our database for station/object WE8M. If no packets are shown the sender has not sent any weather packets the latest 10 day(s).
| Time | Temp. | Humidity | Pressure | Rain* | Wind** | Luminosity | Snow |
|---|---|---|---|---|---|---|---|
| 1777620921 | 6.11° C | 76% | 1014 hPa | 0 mm | - | - | - |
| 1777620618 | 6.11° C | 76% | 1014.1 hPa | 0 mm | - | - | - |
| 1777620314 | 6.11° C | 76% | 1014.1 hPa | 0 mm | - | - | - |
| 1777620011 | 6.11° C | 76% | 1014.2 hPa | 0 mm | - | - | - |
| 1777619708 | 5.56° C | 77% | 1014.3 hPa | 0 mm | - | - | - |
| 1777619408 | 5.56° C | 78% | 1014.4 hPa | 0 mm | - | - | - |
| 1777619108 | 6.11° C | 78% | 1014.3 hPa | 0 mm | - | - | - |
| 1777618802 | 6.11° C | 76% | 1014.4 hPa | 0 mm | - | - | - |
| 1777618497 | 6.11° C | 78% | 1014.4 hPa | 0 mm | - | - | - |
| 1777618194 | 6.11° C | 77% | 1014.4 hPa | 0 mm | - | - | - |
| 1777617891 | 5.56° C | 77% | 1014.7 hPa | 0 mm | - | - | - |
| 1777617586 | 5.56° C | 81% | 1014.5 hPa | 0 mm | - | - | - |
| 1777617283 | 5° C | 85% | 1014.7 hPa | 0 mm | - | - | - |
| 1777616980 | 4.44° C | 88% | 1014.8 hPa | 0 mm | - | - | - |
| 1777616675 | 3.89° C | 92% | 1014.9 hPa | 0 mm | - | - | - |
| 1777616370 | 3.89° C | 91% | 1015 hPa | 0 mm | - | - | - |
| 1777616067 | 4.44° C | 90% | 1015.1 hPa | 0 mm | - | - | - |
| 1777615764 | 4.44° C | 89% | 1015.1 hPa | 0 mm | - | - | - |
| 1777615461 | 4.44° C | 88% | 1015.2 hPa | 0 mm | - | - | - |
| 1777615160 | 4.44° C | 88% | 1015.2 hPa | 0 mm | - | - | - |
| 1777614856 | 4.44° C | 88% | 1015.3 hPa | 0 mm | - | - | - |
| 1777614553 | 5° C | 86% | 1015.1 hPa | 0 mm | - | - | - |
| 1777614248 | 5° C | 85% | 1015.2 hPa | 0 mm | - | - | - |
| 1777613943 | 5° C | 83% | 1015 hPa | 0 mm | - | - | - |
| 1777613640 | 5.56° C | 82% | 1015.1 hPa | 0 mm | - | - | - |
* Rain latest hour (hover to see other rain measurements)
** Current wind speed in m/s (hover to see current wind gust speed)